Time;durP1;ratioP1;P1;durP2;ratioP2;P2;SDS_P1;SDS_P2;PMS_P1;PMS_P2;Temp;Humidity;BMP_temperature;BMP_pressure;BME280_temperature;BME280_humidity;BME280_pressure;Samples;Min_cycle;Max_cycle;Signal;HPM_P1;HPM_P2
2023/09/24 00:00:34;;;;;;;15.50;10.35;;;11.40;99.90;;;;;;5036852;28;20044;-71
2023/09/24 00:02:59;;;;;;;13.52;11.00;;;11.40;99.90;;;;;;5036602;28;20025;-71
2023/09/24 00:05:25;;;;;;;17.80;12.00;;;11.40;99.90;;;;;;5036431;28;20043;-73
2023/09/24 00:07:50;;;;;;;18.38;12.18;;;11.30;99.90;;;;;;5036494;28;20043;-71
2023/09/24 00:10:16;;;;;;;21.25;12.05;;;11.30;99.90;;;;;;5036183;28;20220;-71
2023/09/24 00:12:42;;;;;;;17.00;11.27;;;11.30;99.90;;;;;;5036311;28;20116;-71
2023/09/24 00:15:08;;;;;;;18.42;11.23;;;11.30;99.90;;;;;;5036052;28;20475;-71
2023/09/24 00:17:34;;;;;;;16.67;10.70;;;11.20;99.90;;;;;;5035471;28;20024;-71
2023/09/24 00:19:59;;;;;;;17.90;10.63;;;11.20;99.90;;;;;;5035989;28;20029;-71
2023/09/24 00:22:25;;;;;;;14.05;10.05;;;11.10;99.90;;;;;;5036537;28;20025;-71
2023/09/24 00:24:50;;;;;;;16.67;11.38;;;11.10;99.90;;;;;;5036529;28;20029;-70
2023/09/24 00:27:16;;;;;;;16.20;10.90;;;11.00;99.90;;;;;;5036511;28;20044;-71
2023/09/24 00:29:42;;;;;;;15.95;10.82;;;11.00;99.90;;;;;;5036225;28;20036;-71
2023/09/24 00:32:08;;;;;;;13.13;10.90;;;11.00;99.90;;;;;;5035154;28;20395;-71
2023/09/24 00:34:33;;;;;;;15.88;11.15;;;10.90;99.90;;;;;;5036230;28;20363;-71
2023/09/24 00:36:59;;;;;;;18.85;11.85;;;10.90;99.90;;;;;;5036026;28;20032;-71
2023/09/24 00:39:24;;;;;;;17.90;11.65;;;11.00;99.90;;;;;;5035391;28;20040;-71
2023/09/24 00:41:50;;;;;;;16.95;11.13;;;11.00;99.90;;;;;;5035370;28;20514;-71
2023/09/24 00:44:15;;;;;;;15.23;11.13;;;11.00;99.90;;;;;;5036207;28;20041;-71
2023/09/24 00:46:44;;;;;;;19.60;12.07;;;11.00;99.90;;;;;;5036274;28;20037;-71
2023/09/24 00:49:12;;;;;;;15.70;10.80;;;11.00;99.90;;;;;;5035822;28;20088;-71
2023/09/24 00:51:38;;;;;;;17.83;11.38;;;10.90;99.90;;;;;;5035972;28;20025;-71
2023/09/24 00:54:04;;;;;;;17.42;11.50;;;10.90;99.90;;;;;;5035185;28;20447;-71
2023/09/24 00:56:31;;;;;;;17.50;11.60;;;10.90;99.90;;;;;;5035954;28;20029;-71
2023/09/24 00:58:57;;;;;;;16.15;10.95;;;10.80;99.90;;;;;;5035287;28;20047;-71
2023/09/24 01:01:25;;;;;;;14.55;10.73;;;10.90;99.90;;;;;;5035490;28;20021;-71
2023/09/24 01:03:51;;;;;;;16.77;11.07;;;10.90;99.90;;;;;;5035814;28;20017;-71
2023/09/24 01:06:17;;;;;;;16.63;11.98;;;10.80;99.90;;;;;;5035491;28;20022;-71
2023/09/24 01:08:43;;;;;;;18.42;11.75;;;10.80;99.90;;;;;;5035774;28;20357;-71
2023/09/24 01:11:09;;;;;;;16.30;11.05;;;10.80;99.90;;;;;;5035728;28;20074;-71
2023/09/24 01:13:38;;;;;;;20.50;12.10;;;10.80;99.90;;;;;;5035333;28;20030;-71
2023/09/24 01:16:07;;;;;;;16.90;12.18;;;10.80;99.90;;;;;;5034889;28;20033;-71
2023/09/24 01:18:36;;;;;;;18.45;12.20;;;10.80;99.90;;;;;;5035236;28;20064;-72
2023/09/24 01:21:03;;;;;;;15.68;10.57;;;10.80;99.90;;;;;;5035166;28;20026;-71
2023/09/24 01:23:35;;;;;;;16.95;12.25;;;10.80;99.90;;;;;;5035208;28;20025;-71
2023/09/24 01:26:00;;;;;;;16.17;12.13;;;10.70;99.90;;;;;;5035483;28;20080;-71
2023/09/24 01:28:26;;;;;;;19.85;11.95;;;10.70;99.90;;;;;;5035238;28;20037;-71
2023/09/24 01:30:52;;;;;;;15.57;11.00;;;10.70;99.90;;;;;;5034685;28;20037;-71
2023/09/24 01:33:18;;;;;;;15.57;10.80;;;10.70;99.90;;;;;;5035081;28;20467;-71
2023/09/24 01:35:45;;;;;;;22.38;13.88;;;10.60;99.90;;;;;;5034615;28;20030;-71
2023/09/24 01:38:11;;;;;;;22.45;13.00;;;10.60;99.90;;;;;;5035239;28;20076;-71
2023/09/24 01:40:38;;;;;;;20.95;11.73;;;10.60;99.90;;;;;;5034845;28;20521;-71
2023/09/24 01:43:05;;;;;;;15.05;10.82;;;10.60;99.90;;;;;;5034828;28;20028;-71
2023/09/24 01:45:34;;;;;;;16.77;11.70;;;10.50;99.90;;;;;;5034753;28;20125;-71
2023/09/24 01:48:00;;;;;;;20.13;12.38;;;10.50;99.90;;;;;;5034969;28;20037;-71
2023/09/24 01:50:27;;;;;;;17.30;11.82;;;10.50;99.90;;;;;;5034456;28;20387;-71
2023/09/24 01:52:56;;;;;;;17.30;11.70;;;10.40;99.90;;;;;;5033766;28;20044;-72
2023/09/24 01:55:21;;;;;;;20.60;11.45;;;10.40;99.90;;;;;;5034281;28;20032;-71
2023/09/24 01:57:47;;;;;;;22.15;12.32;;;10.40;99.90;;;;;;5034942;28;20033;-71
2023/09/24 02:00:18;;;;;;;16.83;12.00;;;10.30;99.90;;;;;;5034582;28;20467;-71
2023/09/24 02:02:43;;;;;;;16.90;11.70;;;10.20;99.90;;;;;;5034378;28;20031;-71
2023/09/24 02:05:10;;;;;;;18.13;13.25;;;10.20;99.90;;;;;;5034411;28;20441;-72
2023/09/24 02:07:38;;;;;;;21.42;13.85;;;10.20;99.90;;;;;;5033882;28;20029;-71
2023/09/24 02:10:05;;;;;;;19.67;12.80;;;10.30;99.90;;;;;;5034390;28;20379;-72
2023/09/24 02:12:35;;;;;;;23.20;14.35;;;10.30;99.90;;;;;;5034400;28;20057;-70
2023/09/24 02:15:03;;;;;;;25.95;13.70;;;10.30;99.90;;;;;;5034308;28;20033;-70
2023/09/24 02:17:28;;;;;;;23.55;14.98;;;10.30;99.90;;;;;;5034023;28;20026;-70
2023/09/24 02:19:55;;;;;;;25.42;14.18;;;10.30;99.90;;;;;;5033567;28;20036;-70
2023/09/24 02:22:22;;;;;;;21.55;13.05;;;10.20;99.90;;;;;;5034016;28;20026;-70
2023/09/24 02:24:48;;;;;;;24.05;14.02;;;10.20;99.90;;;;;;5034115;28;20032;-70
2023/09/24 02:27:13;;;;;;;18.00;12.25;;;10.20;99.90;;;;;;5034400;28;20367;-69
2023/09/24 02:29:39;;;;;;;19.35;12.82;;;10.10;99.90;;;;;;5033499;28;20036;-70
2023/09/24 02:32:06;;;;;;;22.17;13.23;;;10.10;99.90;;;;;;5033171;28;20057;-70
2023/09/24 02:34:31;;;;;;;21.20;13.40;;;10.10;99.90;;;;;;5034306;28;20029;-70
2023/09/24 02:36:57;;;;;;;18.27;13.02;;;10.00;99.90;;;;;;5033958;28;20025;-70
2023/09/24 02:39:22;;;;;;;18.60;12.30;;;10.00;99.90;;;;;;5033612;28;20360;-69
2023/09/24 02:41:49;;;;;;;17.75;12.30;;;10.00;99.90;;;;;;5033793;28;20029;-70
2023/09/24 02:44:17;;;;;;;22.80;13.65;;;9.90;99.90;;;;;;5033331;28;20048;-71
2023/09/24 02:46:44;;;;;;;25.23;13.85;;;9.80;99.90;;;;;;5034213;28;20099;-70
2023/09/24 02:49:10;;;;;;;19.83;12.50;;;9.80;99.90;;;;;;5033750;28;20033;-70
2023/09/24 02:51:35;;;;;;;18.58;11.00;;;9.80;99.90;;;;;;5033671;28;20022;-70
2023/09/24 02:54:01;;;;;;;18.50;11.88;;;9.70;99.90;;;;;;5034200;28;20041;-69
2023/09/24 02:56:28;;;;;;;17.48;11.32;;;9.70;99.90;;;;;;5034019;28;20474;-70
2023/09/24 02:58:55;;;;;;;17.00;11.43;;;9.70;99.90;;;;;;5034106;28;20029;-70
2023/09/24 03:01:21;;;;;;;17.90;11.95;;;9.60;99.90;;;;;;5033678;28;20537;-70
2023/09/24 03:03:48;;;;;;;23.52;12.93;;;9.60;99.90;;;;;;5033641;28;20029;-70
2023/09/24 03:06:14;;;;;;;21.20;12.93;;;9.60;99.90;;;;;;5037691;28;20018;-70
2023/09/24 03:08:39;;;;;;;20.35;13.48;;;9.50;99.90;;;;;;5037728;28;20037;-70
2023/09/24 03:11:15;;;;;;;19.20;12.98;;;9.50;99.90;;;;;;5037988;28;20030;-69
2023/09/24 03:13:41;;;;;;;25.25;14.40;;;9.50;99.90;;;;;;5037283;28;20033;-70
2023/09/24 03:16:07;;;;;;;18.63;12.65;;;9.50;99.90;;;;;;5037615;28;20033;-69
2023/09/24 03:18:33;;;;;;;20.83;13.93;;;9.40;99.90;;;;;;5037232;28;20032;-69
2023/09/24 03:20:58;;;;;;;23.75;12.95;;;9.30;99.90;;;;;;5037544;28;20370;-70
2023/09/24 03:23:24;;;;;;;20.83;12.60;;;9.30;99.90;;;;;;5037501;28;20350;-70
2023/09/24 03:25:50;;;;;;;21.05;13.45;;;9.30;99.90;;;;;;5037696;28;20099;-70
2023/09/24 03:28:16;;;;;;;21.45;13.13;;;9.30;99.90;;;;;;5036738;28;20060;-69
2023/09/24 03:30:41;;;;;;;23.00;13.85;;;9.30;99.90;;;;;;5036523;28;20073;-69
2023/09/24 03:33:07;;;;;;;20.77;13.98;;;9.30;99.90;;;;;;5037088;28;20087;-70
2023/09/24 03:35:33;;;;;;;20.60;13.25;;;9.30;99.90;;;;;;5037227;28;20018;-70
2023/09/24 03:37:59;;;;;;;25.10;14.20;;;9.30;99.90;;;;;;5037500;28;20025;-70
2023/09/24 03:40:27;;;;;;;26.95;14.88;;;9.20;99.90;;;;;;5036837;28;20061;-70
2023/09/24 03:42:52;;;;;;;22.48;13.98;;;9.20;99.90;;;;;;5037353;28;20463;-70
2023/09/24 03:45:23;;;;;;;22.90;13.50;;;9.20;99.90;;;;;;5037048;28;20036;-70
2023/09/24 03:47:49;;;;;;;19.50;13.27;;;9.10;99.90;;;;;;5037313;28;20030;-70
2023/09/24 03:50:17;;;;;;;20.92;13.07;;;9.10;99.90;;;;;;5036592;28;20374;-70
2023/09/24 03:52:44;;;;;;;20.17;12.57;;;9.10;99.90;;;;;;5036180;28;20082;-71
2023/09/24 03:55:10;;;;;;;18.23;12.80;;;9.10;99.90;;;;;;5036804;28;20049;-70
2023/09/24 03:57:38;;;;;;;20.88;13.10;;;9.00;99.90;;;;;;5037121;28;20111;-70
2023/09/24 04:00:21;;;;;;;19.98;12.80;;;9.00;99.90;;;;;;5037108;28;20063;-70
2023/09/24 04:02:48;;;;;;;20.55;12.93;;;9.00;99.90;;;;;;5036817;28;20029;-71
2023/09/24 04:05:17;;;;;;;23.40;14.32;;;8.90;99.90;;;;;;5036771;28;20056;-70
2023/09/24 04:07:44;;;;;;;20.83;13.15;;;9.00;99.90;;;;;;5036698;28;20159;-70
2023/09/24 04:10:14;;;;;;;19.15;12.82;;;9.00;99.90;;;;;;5036871;28;20025;-71
2023/09/24 04:12:43;;;;;;;22.63;13.35;;;8.90;99.90;;;;;;5036674;28;20360;-69
2023/09/24 04:15:09;;;;;;;20.27;14.20;;;8.90;99.90;;;;;;5036702;28;20032;-70
2023/09/24 04:17:42;;;;;;;27.42;15.23;;;8.90;99.90;;;;;;5035824;28;20029;-70
2023/09/24 04:20:12;;;;;;;21.63;13.07;;;8.90;99.90;;;;;;5036744;28;20079;-70
2023/09/24 04:22:37;;;;;;;22.65;13.27;;;8.90;99.90;;;;;;5035945;28;20049;-75
2023/09/24 04:25:03;;;;;;;21.27;14.27;;;8.80;99.90;;;;;;5035399;28;20041;-70
2023/09/24 04:27:29;;;;;;;19.60;13.68;;;8.80;99.90;;;;;;5036161;28;20025;-70
2023/09/24 04:29:54;;;;;;;20.92;13.15;;;8.80;99.90;;;;;;5035898;28;20029;-70
2023/09/24 04:32:20;;;;;;;21.05;13.73;;;8.70;99.90;;;;;;5036082;28;20461;-70
2023/09/24 04:34:46;;;;;;;21.83;13.85;;;8.80;99.90;;;;;;5036039;28;20018;-70
2023/09/24 04:37:12;;;;;;;21.77;13.38;;;8.70;99.90;;;;;;5036051;28;20471;-70
2023/09/24 04:39:38;;;;;;;20.23;12.07;;;8.70;99.90;;;;;;5035798;28;20168;-70
2023/09/24 04:42:06;;;;;;;23.08;12.88;;;8.70;99.90;;;;;;5036008;28;20112;-70
2023/09/24 04:44:32;;;;;;;18.83;11.70;;;8.70;99.90;;;;;;5035843;28;20030;-70
2023/09/24 04:46:57;;;;;;;19.38;12.43;;;8.60;99.90;;;;;;5036194;28;20044;-70
2023/09/24 04:49:23;;;;;;;19.65;12.35;;;8.60;99.90;;;;;;5034937;28;20103;-71
2023/09/24 04:51:50;;;;;;;22.80;13.18;;;8.60;99.90;;;;;;5036068;28;20030;-69
2023/09/24 04:54:16;;;;;;;21.95;13.48;;;8.60;99.90;;;;;;5035785;28;20116;-70
2023/09/24 04:56:41;;;;;;;20.38;12.43;;;8.60;99.90;;;;;;5035972;28;20108;-70
2023/09/24 04:59:07;;;;;;;18.27;11.90;;;8.50;99.90;;;;;;5035354;28;20055;-70
2023/09/24 05:01:32;;;;;;;23.52;13.40;;;8.50;99.90;;;;;;5035533;28;20020;-70
2023/09/24 05:03:58;;;;;;;20.50;12.57;;;8.50;99.90;;;;;;5035084;28;20026;-70
2023/09/24 05:06:24;;;;;;;21.15;12.52;;;8.50;99.90;;;;;;5035027;28;20029;-70
2023/09/24 05:08:49;;;;;;;20.02;11.77;;;8.50;99.90;;;;;;5035257;28;20028;-70
2023/09/24 05:11:15;;;;;;;18.25;11.77;;;8.50;99.90;;;;;;5035737;28;20455;-70
2023/09/24 05:13:40;;;;;;;16.67;12.02;;;8.50;99.90;;;;;;5035308;28;20033;-70
2023/09/24 05:16:08;;;;;;;19.60;11.90;;;8.50;99.90;;;;;;5035011;28;20028;-70
2023/09/24 05:18:33;;;;;;;20.80;12.00;;;8.50;99.90;;;;;;5035268;28;20025;-69
2023/09/24 05:20:59;;;;;;;17.75;12.30;;;8.50;99.90;;;;;;5034683;28;20033;-70
2023/09/24 05:23:25;;;;;;;19.42;12.52;;;8.50;99.90;;;;;;5035480;28;20033;-70
2023/09/24 05:25:51;;;;;;;22.73;12.68;;;8.50;99.90;;;;;;5035427;28;20029;-70
2023/09/24 05:28:17;;;;;;;19.50;11.82;;;8.50;99.90;;;;;;5035121;28;20375;-70
2023/09/24 05:30:51;;;;;;;19.42;12.90;;;8.60;99.90;;;;;;5034898;28;20099;-70
2023/09/24 05:33:16;;;;;;;19.50;11.80;;;8.60;99.90;;;;;;5035024;28;20126;-69
2023/09/24 05:35:42;;;;;;;19.45;12.63;;;8.60;99.90;;;;;;5034334;28;20100;-71
2023/09/24 05:38:07;;;;;;;19.42;11.65;;;8.70;99.90;;;;;;5035075;28;20183;-70
2023/09/24 05:40:38;;;;;;;19.88;11.75;;;8.70;99.90;;;;;;5034907;28;20522;-70
2023/09/24 05:43:04;;;;;;;21.08;13.48;;;8.80;99.90;;;;;;5034239;28;20109;-69
2023/09/24 05:45:29;;;;;;;19.02;12.00;;;8.80;99.90;;;;;;5034746;28;20169;-70
2023/09/24 05:47:55;;;;;;;29.63;13.70;;;8.90;99.90;;;;;;5034809;28;20026;-70
2023/09/24 05:50:21;;;;;;;21.15;12.75;;;8.90;99.90;;;;;;5034936;28;20037;-70
2023/09/24 05:52:46;;;;;;;26.52;13.98;;;9.00;99.90;;;;;;5033794;28;20052;-70
2023/09/24 05:55:12;;;;;;;19.95;12.82;;;9.10;99.90;;;;;;5034923;28;20026;-70
2023/09/24 05:57:38;;;;;;;22.55;13.70;;;9.10;99.90;;;;;;5034653;28;20033;-70
2023/09/24 06:00:04;;;;;;;19.73;13.23;;;9.20;99.90;;;;;;5034628;28;20487;-70
2023/09/24 06:02:30;;;;;;;21.73;14.43;;;9.30;99.90;;;;;;5034326;28;20036;-70
2023/09/24 06:04:56;;;;;;;29.92;17.15;;;9.40;99.90;;;;;;5034123;28;20029;-70
2023/09/24 06:07:22;;;;;;;25.02;15.45;;;9.50;99.90;;;;;;5034398;28;20037;-71
2023/09/24 06:09:48;;;;;;;24.52;14.50;;;9.70;99.90;;;;;;5034493;28;20498;-70
2023/09/24 06:12:14;;;;;;;33.72;17.50;;;9.80;99.90;;;;;;5034530;28;20025;-70
2023/09/24 06:14:39;;;;;;;31.00;15.52;;;9.80;99.90;;;;;;5034320;28;20032;-70
2023/09/24 06:17:05;;;;;;;31.90;15.95;;;10.00;99.90;;;;;;5034082;28;20067;-70
2023/09/24 06:19:32;;;;;;;31.33;17.88;;;10.40;99.90;;;;;;5033965;28;20029;-71
2023/09/24 06:21:57;;;;;;;25.95;16.88;;;11.60;99.90;;;;;;5033836;28;20025;-70
2023/09/24 06:24:23;;;;;;;20.25;14.27;;;13.10;99.90;;;;;;5033835;28;20029;-71
2023/09/24 06:26:49;;;;;;;12.70;9.85;;;14.40;99.90;;;;;;5033531;28;20500;-71
2023/09/24 06:29:14;;;;;;;10.93;8.10;;;15.00;99.90;;;;;;5034140;28;20100;-71
2023/09/24 06:31:40;;;;;;;9.23;7.60;;;15.90;99.90;;;;;;5033252;28;20124;-71
2023/09/24 06:34:06;;;;;;;8.88;6.72;;;16.90;99.90;;;;;;5034336;28;20079;-71
2023/09/24 06:36:32;;;;;;;7.10;6.07;;;17.70;99.90;;;;;;5034027;28;20040;-72
2023/09/24 06:38:59;;;;;;;11.45;6.13;;;18.30;99.90;;;;;;5033500;28;20029;-73
2023/09/24 06:41:25;;;;;;;7.25;5.88;;;18.90;1.00;;;;;;5033900;28;20064;-72
2023/09/24 06:43:51;;;;;;;9.57;5.75;;;19.10;1.00;;;;;;5033821;28;20428;-72
2023/09/24 06:46:17;;;;;;;6.75;5.68;;;19.60;99.90;;;;;;5034145;28;20037;-72
2023/09/24 06:48:42;;;;;;;7.45;5.32;;;20.00;46.60;;;;;;5033817;28;20418;-72
2023/09/24 06:51:09;;;;;;;9.48;5.60;;;20.20;1.00;;;;;;5033302;28;20053;-72
2023/09/24 06:53:37;;;;;;;6.93;5.35;;;20.80;99.90;;;;;;5033749;28;20144;-72
2023/09/24 06:56:05;;;;;;;6.03;5.07;;;21.30;99.90;;;;;;5033427;28;20030;-72
2023/09/24 06:58:33;;;;;;;10.05;5.22;;;21.20;99.90;;;;;;5033488;28;20080;-72
2023/09/24 07:01:00;;;;;;;6.90;5.18;;;21.30;99.90;;;;;;5034083;28;20036;-72
2023/09/24 07:03:26;;;;;;;8.88;5.03;;;21.70;53.20;;;;;;5034063;28;20040;-73
2023/09/24 07:05:52;;;;;;;9.80;5.65;;;21.40;99.90;;;;;;5034061;28;20029;-72
2023/09/24 07:08:18;;;;;;;7.68;4.70;;;21.40;99.90;;;;;;5033791;28;20091;-72
2023/09/24 07:10:43;;;;;;;8.57;5.22;;;21.60;1.00;;;;;;5033315;28;20522;-72
2023/09/24 07:13:09;;;;;;;8.40;5.20;;;22.30;99.90;;;;;;5033529;28;20044;-72
2023/09/24 07:15:34;;;;;;;7.97;4.95;;;22.60;11.20;;;;;;5033062;28;20026;-72
2023/09/24 07:18:00;;;;;;;8.45;4.78;;;23.10;99.90;;;;;;5032987;28;20147;-72
2023/09/24 07:20:26;;;;;;;6.97;4.75;;;23.80;1.00;;;;;;5032652;28;20025;-72
2023/09/24 07:22:51;;;;;;;9.90;5.18;;;24.00;99.90;;;;;;5033228;28;20033;-73
2023/09/24 07:25:17;;;;;;;9.15;4.80;;;23.30;99.90;;;;;;5032611;28;20025;-76
2023/09/24 07:27:43;;;;;;;7.93;5.22;;;22.80;99.90;;;;;;5033428;28;20029;-73
2023/09/24 07:30:09;;;;;;;8.57;5.43;;;21.90;1.00;;;;;;5033266;28;20498;-73
2023/09/24 07:32:34;;;;;;;6.68;5.25;;;21.70;99.90;;;;;;5033273;28;20368;-73
2023/09/24 07:35:00;;;;;;;12.95;5.00;;;21.90;99.90;;;;;;5033451;28;20041;-73
2023/09/24 07:37:25;;;;;;;10.30;5.20;;;21.60;8.40;;;;;;5033167;28;20025;-73
2023/09/24 07:39:51;;;;;;;9.43;5.47;;;21.30;99.90;;;;;;5033160;28;20379;-73
2023/09/24 07:42:18;;;;;;;8.80;5.25;;;21.40;14.60;;;;;;5033659;28;20066;-73
2023/09/24 07:44:44;;;;;;;8.50;5.10;;;21.70;1.00;;;;;;5033386;28;20029;-73
2023/09/24 07:47:09;;;;;;;9.40;5.15;;;21.80;99.90;;;;;;5033251;28;20032;-73
2023/09/24 07:49:35;;;;;;;8.07;4.82;;;22.10;99.90;;;;;;5033378;28;20168;-73
2023/09/24 07:52:00;;;;;;;12.15;5.57;;;21.50;1.00;;;;;;5035506;28;20072;-73
2023/09/24 07:54:27;;;;;;;10.20;5.65;;;20.70;99.90;;;;;;5035974;28;20022;-73
2023/09/24 07:56:53;;;;;;;9.15;5.07;;;20.80;99.90;;;;;;5035892;28;20024;-73
2023/09/24 07:59:19;;;;;;;10.77;5.18;;;21.20;1.00;;;;;;5035967;28;20022;-73
2023/09/24 08:01:45;;;;;;;10.90;5.47;;;21.30;81.30;;;;;;5036842;28;20072;-72
2023/09/24 08:04:11;;;;;;;8.38;4.97;;;21.20;99.90;;;;;;5036697;28;20510;-73
2023/09/24 08:06:37;;;;;;;10.50;5.30;;;21.60;47.90;;;;;;5036936;28;20045;-73
2023/09/24 08:09:05;;;;;;;7.63;4.45;;;21.20;99.90;;;;;;5037051;28;20033;-73
2023/09/24 08:11:31;;;;;;;7.07;4.22;;;21.60;1.00;;;;;;5036502;28;20021;-73
2023/09/24 08:13:57;;;;;;;7.60;4.20;;;21.80;99.90;;;;;;5035705;28;20040;-73
2023/09/24 08:16:22;;;;;;;7.65;4.72;;;21.50;1.00;;;;;;5036414;28;20018;-73
2023/09/24 08:18:49;;;;;;;11.80;4.75;;;21.30;99.90;;;;;;5036577;28;20037;-73
2023/09/24 08:21:15;;;;;;;9.93;4.43;;;22.20;99.90;;;;;;5036455;28;20022;-73
2023/09/24 08:23:41;;;;;;;6.57;4.20;;;22.00;18.60;;;;;;5036682;28;20025;-73
2023/09/24 08:26:07;;;;;;;8.65;4.32;;;21.80;99.90;;;;;;5035736;28;20041;-73
2023/09/24 08:28:32;;;;;;;8.80;4.00;;;21.60;1.00;;;;;;5035903;28;20044;-72
2023/09/24 08:30:58;;;;;;;8.82;4.57;;;21.70;99.90;;;;;;5035614;28;20045;-73
2023/09/24 08:33:23;;;;;;;6.63;4.38;;;22.10;99.90;;;;;;5035993;28;20475;-73
2023/09/24 08:35:49;;;;;;;6.55;4.10;;;22.20;99.90;;;;;;5036114;28;20052;-73
2023/09/24 08:38:14;;;;;;;8.60;4.75;;;22.20;1.00;;;;;;5035865;28;20075;-73
2023/09/24 08:40:40;;;;;;;7.22;3.63;;;22.00;99.90;;;;;;5035452;28;20124;-72
2023/09/24 08:43:14;;;;;;;4.75;3.50;;;22.20;99.90;;;;;;5035082;28;20061;-73
2023/09/24 08:45:41;;;;;;;8.95;4.65;;;21.80;99.90;;;;;;5035317;28;20068;-73
2023/09/24 08:48:09;;;;;;;7.25;3.92;;;21.80;1.00;;;;;;5036101;28;20025;-73
2023/09/24 08:50:37;;;;;;;6.13;3.90;;;22.60;99.90;;;;;;5035928;28;20033;-73
2023/09/24 08:53:07;;;;;;;6.57;4.00;;;22.90;99.90;;;;;;5035737;28;20030;-73
2023/09/24 08:55:32;;;;;;;7.18;3.63;;;22.20;1.00;;;;;;5035414;28;20056;-73
2023/09/24 08:57:58;;;;;;;8.40;3.90;;;21.70;99.90;;;;;;5035998;28;20463;-73
2023/09/24 09:00:24;;;;;;;10.75;4.07;;;22.10;1.00;;;;;;5035961;28;20075;-72
2023/09/24 09:02:50;;;;;;;9.77;4.20;;;21.70;99.90;;;;;;5035299;28;20478;-73
2023/09/24 09:05:25;;;;;;;6.82;4.20;;;21.60;1.00;;;;;;5035677;28;20037;-73
2023/09/24 09:07:56;;;;;;;6.22;3.78;;;22.20;1.00;;;;;;5035922;28;20029;-73
2023/09/24 09:10:27;;;;;;;9.52;4.30;;;22.10;1.00;;;;;;5035771;28;20116;-73
2023/09/24 09:13:03;;;;;;;8.57;3.90;;;21.90;1.00;;;;;;5035269;28;20036;-73
2023/09/24 09:15:29;;;;;;;8.48;4.10;;;21.40;99.90;;;;;;5034823;28;20035;-73
2023/09/24 09:17:55;;;;;;;9.77;4.00;;;22.00;99.90;;;;;;5035263;28;20030;-73
2023/09/24 09:20:41;;;;;;;7.05;3.15;;;21.80;1.00;;;;;;5035092;28;20364;-73
2023/09/24 09:23:12;;;;;;;6.43;3.60;;;22.50;99.90;;;;;;5035404;28;20033;-73
2023/09/24 09:25:53;;;;;;;10.30;3.88;;;22.90;72.90;;;;;;5035290;28;20505;-72
2023/09/24 09:28:23;;;;;;;6.72;3.47;;;22.60;99.90;;;;;;5035498;28;20029;-72
2023/09/24 09:31:10;;;;;;;5.80;3.10;;;22.40;99.90;;;;;;5034893;28;20052;-73
2023/09/24 09:33:39;;;;;;;6.07;2.80;;;22.90;99.90;;;;;;5034580;28;20065;-72
2023/09/24 09:36:23;;;;;;;7.65;2.90;;;23.30;6.70;;;;;;5035162;28;20499;-73
2023/09/24 09:38:51;;;;;;;3.90;2.00;;;22.80;1.00;;;;;;5034719;28;20021;-73
2023/09/24 09:41:17;;;;;;;9.43;2.50;;;22.30;1.00;;;;;;5034090;28;20071;-73
2023/09/24 09:43:46;;;;;;;4.97;1.95;;;22.70;99.90;;;;;;5034958;28;20038;-72
2023/09/24 09:46:16;;;;;;;4.18;2.00;;;23.10;99.90;;;;;;5034550;28;20033;-73
2023/09/24 09:48:50;;;;;;;3.53;1.70;;;22.90;1.00;;;;;;5034242;28;20040;-73
2023/09/24 09:51:18;;;;;;;4.03;1.55;;;21.90;99.90;;;;;;5034965;28;20034;-72
2023/09/24 09:53:45;;;;;;;4.75;1.23;;;22.20;1.00;;;;;;5034364;28;20025;-72
2023/09/24 09:56:11;;;;;;;3.65;1.40;;;21.80;99.90;;;;;;5034601;28;20470;-72
2023/09/24 09:58:38;;;;;;;7.25;1.73;;;21.70;1.00;;;;;;5034883;28;20114;-72
2023/09/24 10:01:05;;;;;;;6.10;1.70;;;22.60;99.90;;;;;;5034868;28;20406;-72
2023/09/24 10:03:38;;;;;;;5.30;1.77;;;22.60;99.90;;;;;;5034613;28;20091;-72
2023/09/24 10:06:06;;;;;;;;;;;22.20;99.90;;;;;;5034495;28;20079;-72
2023/09/24 10:08:50;;;;;;;4.30;2.08;;;22.40;99.90;;;;;;5034222;28;19905;-72
2023/09/24 10:14:08;;;;;;;4.57;1.80;;;22.30;99.90;;;;;;5071449;28;20433;-73
2023/09/24 10:16:37;;;;;;;2.35;1.48;;;21.70;99.90;;;;;;5071487;28;20024;-72
2023/09/24 10:19:07;;;;;;;4.50;1.60;;;21.90;99.90;;;;;;5071438;28;20029;-73
2023/09/24 10:21:38;;;;;;;4.00;1.42;;;21.50;99.90;;;;;;5071067;28;20025;-72
2023/09/24 10:27:01;;;;;;;4.43;1.55;;;22.30;1.00;;;;;;5111943;27;20384;-73
2023/09/24 10:32:29;;;;;;;4.97;1.55;;;23.00;99.90;;;;;;5111940;27;20404;-72
2023/09/24 10:37:38;;;;;;;3.15;1.60;;;23.10;83.60;;;;;;5112225;27;20931;-71
2023/09/24 10:40:05;;;;;;;3.15;1.15;;;22.90;99.90;;;;;;5112026;28;20028;-72
2023/09/24 10:42:34;;;;;;;4.22;1.40;;;22.40;99.90;;;;;;5111969;28;20039;-72
2023/09/24 10:47:44;;;;;;;5.45;1.95;;;22.40;99.90;;;;;;5112007;27;20707;-71
2023/09/24 10:50:13;;;;;;;4.25;1.60;;;22.10;1.00;;;;;;5111908;28;20093;-72
2023/09/24 10:52:58;;;;;;;4.18;1.77;;;22.00;99.90;;;;;;5111624;28;20020;-71
2023/09/24 10:58:12;;;;;;;2.58;1.17;;;22.10;99.90;;;;;;5112050;27;20384;-72
2023/09/24 11:00:39;;;;;;;3.22;1.42;;;22.70;99.90;;;;;;5111754;28;20074;-73
2023/09/24 11:03:07;;;;;;;3.05;1.45;;;22.90;1.00;;;;;;5111788;28;20030;-72
2023/09/24 11:05:40;;;;;;;4.05;1.30;;;23.50;99.90;;;;;;5111071;28;20022;-72
2023/09/24 11:08:06;;;;;;;1.55;1.08;;;22.90;99.90;;;;;;5111670;28;20020;-72
2023/09/24 11:10:32;;;;;;;4.15;1.23;;;22.40;63.10;;;;;;5111772;28;20419;-73
2023/09/24 11:13:00;;;;;;;4.68;1.70;;;22.30;5.50;;;;;;5111653;28;20023;-73
2023/09/24 11:15:31;;;;;;;3.22;1.38;;;22.40;99.90;;;;;;5111669;28;20020;-72
2023/09/24 11:17:57;;;;;;;3.05;1.42;;;22.40;99.90;;;;;;5111503;28;20599;-72
2023/09/24 11:20:24;;;;;;;2.63;1.40;;;22.30;99.90;;;;;;5111071;28;20469;-72
2023/09/24 11:23:08;;;;;;;2.67;1.48;;;22.20;1.00;;;;;;5111254;28;20020;-72
2023/09/24 11:25:34;;;;;;;3.88;1.80;;;22.20;99.90;;;;;;5111709;28;20028;-72
2023/09/24 11:28:02;;;;;;;2.70;1.45;;;22.20;99.90;;;;;;5111416;28;20115;-72
2023/09/24 11:30:46;;;;;;;4.90;1.70;;;22.00;99.90;;;;;;5111151;28;20024;-73
2023/09/24 11:33:16;;;;;;;3.00;1.45;;;21.80;93.40;;;;;;5111149;28;20019;-72
2023/09/24 11:35:43;;;;;;;5.05;1.67;;;21.70;62.30;;;;;;5111422;28;20036;-72
2023/09/24 11:38:09;;;;;;;2.28;1.20;;;21.70;52.10;;;;;;5111422;28;20108;-72
2023/09/24 11:40:37;;;;;;;3.45;1.20;;;21.80;99.90;;;;;;5111038;28;20024;-72
2023/09/24 11:43:05;;;;;;;3.40;1.55;;;21.70;1.00;;;;;;5110611;28;20032;-72
2023/09/24 11:45:46;;;;;;;2.15;1.50;;;21.80;99.90;;;;;;5110730;28;20110;-72
2023/09/24 11:48:17;;;;;;;4.43;1.70;;;21.90;99.90;;;;;;5110796;28;20031;-72
2023/09/24 11:50:46;;;;;;;3.63;1.60;;;21.60;99.90;;;;;;5110956;28;20085;-72
2023/09/24 11:53:12;;;;;;;4.03;1.38;;;21.50;99.90;;;;;;5110816;28;20031;-72
2023/09/24 11:55:38;;;;;;;2.58;1.20;;;21.40;99.90;;;;;;5110391;28;20024;-72
2023/09/24 11:58:05;;;;;;;3.85;1.33;;;21.20;1.00;;;;;;5109657;28;20044;-72
2023/09/24 12:00:32;;;;;;;4.85;1.10;;;21.20;99.90;;;;;;5111130;28;20476;-72
2023/09/24 12:02:59;;;;;;;2.60;1.20;;;21.00;99.90;;;;;;5110055;28;20060;-72
2023/09/24 12:05:25;;;;;;;2.00;1.17;;;21.20;99.90;;;;;;5110429;28;20537;-72
2023/09/24 12:07:51;;;;;;;1.60;1.10;;;20.90;99.90;;;;;;5105987;28;20119;-72
2023/09/24 12:10:18;;;;;;;2.60;1.20;;;21.00;1.00;;;;;;5097263;28;20032;-72
2023/09/24 12:12:43;;;;;;;3.15;1.50;;;21.20;99.90;;;;;;5095892;28;20113;-72
2023/09/24 12:15:09;;;;;;;4.18;1.52;;;21.20;1.00;;;;;;5096682;28;20044;-72
2023/09/24 12:17:34;;;;;;;3.08;1.23;;;21.30;1.00;;;;;;5096735;28;20027;-72
2023/09/24 12:20:00;;;;;;;3.80;1.25;;;21.30;1.00;;;;;;5096301;28;20103;-72
2023/09/24 12:22:26;;;;;;;5.35;1.45;;;21.40;29.20;;;;;;5096670;28;20475;-72
2023/09/24 12:24:52;;;;;;;2.58;1.38;;;21.60;99.90;;;;;;5096593;28;20020;-72
2023/09/24 12:27:17;;;;;;;2.83;1.33;;;21.50;1.00;;;;;;5096594;28;20028;-72
2023/09/24 12:29:43;;;;;;;3.28;1.67;;;21.80;1.00;;;;;;5096882;28;20405;-72
2023/09/24 12:32:08;;;;;;;3.72;1.70;;;21.80;99.90;;;;;;5096541;28;20039;-72
2023/09/24 12:34:34;;;;;;;6.05;1.70;;;21.60;99.90;;;;;;5095901;28;20042;-72
2023/09/24 12:36:59;;;;;;;3.15;1.70;;;21.80;99.90;;;;;;5096044;28;20042;-72
2023/09/24 12:39:25;;;;;;;4.60;1.40;;;21.40;99.90;;;;;;5096250;28;20024;-72
2023/09/24 12:41:51;;;;;;;6.05;1.85;;;21.50;1.00;;;;;;5096585;28;20028;-72
2023/09/24 12:44:17;;;;;;;6.93;1.75;;;21.60;99.90;;;;;;5096253;28;20381;-72
2023/09/24 12:46:43;;;;;;;2.38;1.63;;;21.30;1.00;;;;;;5096207;28;20028;-72
2023/09/24 12:49:09;;;;;;;2.75;1.70;;;21.40;1.00;;;;;;5095699;28;20043;-73
2023/09/24 12:51:35;;;;;;;4.13;1.70;;;21.20;1.00;;;;;;5096066;28;20036;-72
2023/09/24 12:54:02;;;;;;;2.55;1.70;;;21.40;1.00;;;;;;5096072;28;20032;-72
2023/09/24 12:56:28;;;;;;;1.95;1.40;;;21.60;1.00;;;;;;5095769;28;20448;-72